Time;durP1;ratioP1;P1;durP2;ratioP2;P2;SDS_P1;SDS_P2;PMS_P1;PMS_P2;Temp;Humidity;BMP_temperature;BMP_pressure;BME280_temperature;BME280_humidity;BME280_pressure;Samples;Min_cycle;Max_cycle;Signal;HPM_P1;HPM_P2
2022/06/05 00:01:38;;;;;;;12.85;11.35;;;;;;;;;;5069513;28;20024;-83
2022/06/05 00:04:08;;;;;;;17.65;12.30;;;;;;;;;;5068959;28;20032;-82
2022/06/05 00:06:46;;;;;;;12.25;10.77;;;;;;;;;;5074813;28;20042;-82
2022/06/05 00:09:21;;;;;;;14.60;11.60;;;;;;;;;;5088696;28;20039;-82
2022/06/05 00:12:06;;;;;;;14.68;11.50;;;;;;;;;;5089265;28;20052;-82
2022/06/05 00:14:32;;;;;;;12.77;11.30;;;;;;;;;;5089689;28;20021;-82
2022/06/05 00:16:58;;;;;;;14.48;10.20;;;;;;;;;;5092196;28;20016;-82
2022/06/05 00:19:24;;;;;;;13.18;10.68;;;;;;;;;;5101967;28;20033;-82
2022/06/05 00:21:50;;;;;;;14.13;11.13;;;;;;;;;;5069024;28;20055;-82
2022/06/05 00:24:17;;;;;;;13.45;11.15;;;;;;;;;;5069002;28;20064;-82
2022/06/05 00:26:45;;;;;;;16.83;11.88;;;;;;;;;;5070219;28;20048;-82
2022/06/05 00:29:11;;;;;;;13.30;10.73;;;;;;;;;;5079941;28;20169;-82
2022/06/05 00:31:58;;;;;;;14.70;11.05;;;;;;;;;;5080194;28;20040;-82
2022/06/05 00:34:24;;;;;;;11.98;10.13;;;;;;;;;;5088386;28;20096;-82
2022/06/05 00:37:09;;;;;;;11.75;9.80;;;;;;;;;;5081206;28;20025;-80
2022/06/05 00:39:52;;;;;;;13.35;10.57;;;;;;;;;;5068960;28;20127;-80
2022/06/05 00:42:17;;;;;;;;;;;;;;;;;;5092791;28;20035;-80
2022/06/05 00:44:47;;;;;;;14.13;11.27;;;;;;;;;;5100611;28;19908;-80
2022/06/05 00:47:18;;;;;;;14.93;12.75;;;;;;;;;;5086989;28;20058;-80
2022/06/05 00:50:01;;;;;;;13.68;12.18;;;;;;;;;;5089146;28;20107;-80
2022/06/05 00:52:30;;;;;;;14.35;12.48;;;;;;;;;;5089176;28;20027;-80
2022/06/05 00:54:56;;;;;;;14.02;12.05;;;;;;;;;;5082617;28;20116;-80
2022/06/05 00:57:22;;;;;;;14.90;12.68;;;;;;;;;;5084868;28;20015;-80
2022/06/05 00:59:48;;;;;;;16.60;13.30;;;;;;;;;;5088988;28;20027;-80
2022/06/05 01:02:15;;;;;;;16.00;13.77;;;;;;;;;;5087713;28;20028;-79
2022/06/05 01:04:42;;;;;;;16.95;13.90;;;;;;;;;;5089539;28;20062;-80
2022/06/05 01:07:08;;;;;;;14.68;12.55;;;;;;;;;;5075470;28;20055;-80
2022/06/05 01:09:35;;;;;;;15.70;13.80;;;;;;;;;;5088615;28;20048;-80
2022/06/05 01:12:07;;;;;;;14.85;12.98;;;;;;;;;;5088584;28;20110;-80
2022/06/05 01:14:52;;;;;;;15.38;13.27;;;;;;;;;;5088058;28;20047;-80
2022/06/05 01:17:23;;;;;;;16.85;12.75;;;;;;;;;;5086081;28;20024;-80
2022/06/05 01:19:56;;;;;;;13.60;11.68;;;;;;;;;;5089560;28;20051;-80
2022/06/05 01:22:37;;;;;;;14.10;12.60;;;;;;;;;;5088649;28;20024;-80
2022/06/05 01:25:09;;;;;;;14.88;12.73;;;;;;;;;;5083889;28;20047;-80
2022/06/05 01:27:37;;;;;;;14.03;12.17;;;;;;;;;;5088011;28;20016;-80
2022/06/05 01:30:03;;;;;;;14.90;11.50;;;;;;;;;;5086481;28;20329;-80
2022/06/05 01:32:34;;;;;;;13.98;12.05;;;;;;;;;;5085363;28;20035;-80
2022/06/05 01:35:05;;;;;;;16.23;12.13;;;;;;;;;;5087370;28;20021;-80
2022/06/05 01:37:41;;;;;;;13.85;11.05;;;;;;;;;;5068922;28;20028;-80
2022/06/05 01:40:30;;;;;;;12.43;10.82;;;;;;;;;;5069067;28;20029;-80
2022/06/05 01:42:58;;;;;;;14.48;11.80;;;;;;;;;;5069689;28;20078;-80
2022/06/05 01:45:30;;;;;;;15.70;12.07;;;;;;;;;;5088385;28;20037;-80
2022/06/05 01:47:56;;;;;;;14.02;11.85;;;;;;;;;;5087284;28;20036;-80
2022/06/05 01:50:22;;;;;;;14.18;11.77;;;;;;;;;;5087983;28;20033;-80
2022/06/05 01:52:58;;;;;;;17.33;11.45;;;;;;;;;;5087411;28;20032;-80
2022/06/05 01:55:34;;;;;;;13.63;11.52;;;;;;;;;;5071697;28;20393;-80
2022/06/05 01:58:03;;;;;;;15.45;13.13;;;;;;;;;;5067746;28;20021;-80
2022/06/05 02:00:29;;;;;;;14.70;13.20;;;;;;;;;;5077750;28;20020;-80
2022/06/05 02:03:00;;;;;;;13.25;11.00;;;;;;;;;;5087984;28;20025;-80
2022/06/05 02:05:28;;;;;;;14.43;12.55;;;;;;;;;;5084980;28;20067;-80
2022/06/05 02:08:01;;;;;;;15.80;13.15;;;;;;;;;;5073432;28;20040;-80
2022/06/05 02:10:29;;;;;;;16.50;13.82;;;;;;;;;;5088669;28;20028;-80
2022/06/05 02:12:55;;;;;;;15.15;12.80;;;;;;;;;;5087999;28;20032;-80
2022/06/05 02:15:22;;;;;;;17.63;14.95;;;;;;;;;;5081313;28;20017;-79
2022/06/05 02:17:49;;;;;;;18.13;15.23;;;;;;;;;;5068039;28;20028;-80
2022/06/05 02:20:15;;;;;;;18.63;15.55;;;;;;;;;;5078960;28;20029;-80
2022/06/05 02:22:45;;;;;;;18.13;15.80;;;;;;;;;;5068443;28;20029;-80
2022/06/05 02:25:13;;;;;;;17.83;15.15;;;;;;;;;;5079804;28;20056;-80
2022/06/05 02:27:40;;;;;;;18.02;15.68;;;;;;;;;;5079059;28;20040;-80
2022/06/05 02:30:07;;;;;;;18.88;15.50;;;;;;;;;;5084898;28;20056;-80
2022/06/05 02:32:53;;;;;;;17.23;14.93;;;;;;;;;;5090403;28;20055;-80
2022/06/05 02:35:42;;;;;;;18.08;15.38;;;;;;;;;;5087193;28;20029;-80
2022/06/05 02:38:08;;;;;;;16.63;13.55;;;;;;;;;;5078775;28;20021;-80
2022/06/05 02:40:37;;;;;;;16.48;13.48;;;;;;;;;;5087824;28;20055;-80
2022/06/05 02:43:03;;;;;;;17.52;13.70;;;;;;;;;;5098926;28;20072;-80
2022/06/05 02:45:32;;;;;;;20.58;15.30;;;;;;;;;;5097174;28;20025;-80
2022/06/05 02:48:04;;;;;;;17.05;15.02;;;;;;;;;;5071594;28;20032;-80
2022/06/05 02:50:45;;;;;;;18.80;15.63;;;;;;;;;;5090746;28;20078;-80
2022/06/05 02:53:12;;;;;;;19.90;16.13;;;;;;;;;;5072415;28;20294;-79
2022/06/05 02:55:38;;;;;;;18.83;16.40;;;;;;;;;;5070409;28;20047;-79
2022/06/05 02:58:05;;;;;;;18.75;15.75;;;;;;;;;;5108977;28;20056;-80
2022/06/05 03:00:32;;;;;;;18.73;16.08;;;;;;;;;;5072423;28;20512;-79
2022/06/05 03:05:43;;;;;;;20.45;17.73;;;;;;;;;;5072937;28;20039;-79
2022/06/05 03:08:10;;;;;;;25.05;19.35;;;;;;;;;;5072719;28;20051;-79
2022/06/05 03:10:37;;;;;;;22.50;17.67;;;;;;;;;;5111716;28;20028;-79
2022/06/05 03:13:03;;;;;;;24.02;18.83;;;;;;;;;;5112706;28;20027;-79
2022/06/05 03:15:30;;;;;;;24.00;19.58;;;;;;;;;;5099832;28;20029;-79
2022/06/05 03:17:56;;;;;;;22.83;19.20;;;;;;;;;;5072220;28;20039;-79
2022/06/05 03:20:22;;;;;;;23.70;19.70;;;;;;;;;;5087589;28;20024;-80
2022/06/05 03:22:48;;;;;;;24.67;19.55;;;;;;;;;;5110155;28;20032;-79
2022/06/05 03:25:19;;;;;;;23.10;19.92;;;;;;;;;;5094147;28;20047;-79
2022/06/05 03:27:45;;;;;;;25.92;20.55;;;;;;;;;;5080864;28;20110;-79
2022/06/05 03:30:12;;;;;;;24.27;20.35;;;;;;;;;;5092103;28;20060;-79
2022/06/05 03:32:38;;;;;;;23.02;19.98;;;;;;;;;;5079734;28;20088;-79
2022/06/05 03:35:05;;;;;;;23.70;19.17;;;;;;;;;;5091625;28;20078;-79
2022/06/05 03:37:31;;;;;;;27.45;19.48;;;;;;;;;;5090687;28;20016;-79
2022/06/05 03:39:57;;;;;;;24.20;19.77;;;;;;;;;;5090716;28;20028;-79
2022/06/05 03:42:23;;;;;;;22.40;18.42;;;;;;;;;;5082155;28;20059;-79
2022/06/05 03:44:49;;;;;;;22.98;18.65;;;;;;;;;;5091347;28;20032;-79
2022/06/05 03:47:16;;;;;;;26.90;21.27;;;;;;;;;;5089205;28;20056;-80
2022/06/05 03:49:42;;;;;;;23.13;19.02;;;;;;;;;;5089006;28;20510;-79
2022/06/05 03:52:09;;;;;;;24.80;20.42;;;;;;;;;;5083609;28;20017;-79
2022/06/05 03:54:35;;;;;;;23.17;18.50;;;;;;;;;;5086619;28;20152;-79
2022/06/05 03:57:01;;;;;;;22.92;19.45;;;;;;;;;;5085844;28;20032;-79
2022/06/05 03:59:27;;;;;;;25.42;20.20;;;;;;;;;;5090897;28;20033;-79
2022/06/05 04:01:53;;;;;;;23.67;18.85;;;;;;;;;;5090617;28;20029;-79
2022/06/05 04:04:19;;;;;;;23.88;20.33;;;;;;;;;;5089169;28;20024;-79
2022/06/05 04:06:45;;;;;;;24.08;19.25;;;;;;;;;;5076045;28;20029;-79
2022/06/05 04:09:11;;;;;;;26.00;20.75;;;;;;;;;;5090316;28;20017;-79
2022/06/05 04:11:38;;;;;;;26.67;21.25;;;;;;;;;;5089954;28;20033;-79
2022/06/05 04:14:05;;;;;;;27.00;21.20;;;;;;;;;;5089073;28;20043;-79
2022/06/05 04:16:32;;;;;;;23.58;20.20;;;;;;;;;;5090147;28;20028;-79
2022/06/05 04:18:59;;;;;;;23.30;19.65;;;;;;;;;;5070641;28;20032;-79
2022/06/05 04:21:28;;;;;;;23.48;20.05;;;;;;;;;;5082906;28;20040;-79
2022/06/05 04:23:54;;;;;;;23.08;19.67;;;;;;;;;;5088975;28;20078;-79
2022/06/05 04:26:22;;;;;;;23.23;19.60;;;;;;;;;;5084134;28;20040;-79
2022/06/05 04:28:48;;;;;;;21.30;18.42;;;;;;;;;;5076100;28;20047;-78
2022/06/05 04:31:19;;;;;;;25.67;20.27;;;;;;;;;;5076199;28;20036;-79
2022/06/05 04:33:46;;;;;;;22.73;18.88;;;;;;;;;;5083068;28;20029;-78
2022/06/05 04:36:12;;;;;;;23.77;18.70;;;;;;;;;;5086429;28;20020;-79
2022/06/05 04:38:38;;;;;;;24.02;19.17;;;;;;;;;;5078300;28;20052;-79
2022/06/05 04:41:04;;;;;;;22.10;18.77;;;;;;;;;;5076126;28;20029;-78
2022/06/05 04:43:30;;;;;;;22.55;18.48;;;;;;;;;;5071633;28;20029;-78
2022/06/05 04:45:56;;;;;;;23.00;19.88;;;;;;;;;;5075478;28;20068;-78
2022/06/05 04:48:22;;;;;;;26.65;21.88;;;;;;;;;;5079726;28;20052;-78
2022/06/05 04:50:48;;;;;;;24.67;20.77;;;;;;;;;;5076490;28;20067;-78
2022/06/05 04:53:14;;;;;;;26.70;21.63;;;;;;;;;;5065789;28;20029;-78
2022/06/05 04:55:40;;;;;;;27.77;21.73;;;;;;;;;;5064420;28;20024;-78
2022/06/05 04:58:06;;;;;;;28.55;22.73;;;;;;;;;;5070173;28;20024;-79
2022/06/05 05:00:32;;;;;;;25.90;21.90;;;;;;;;;;5080821;28;20040;-78
2022/06/05 05:02:58;;;;;;;27.27;22.45;;;;;;;;;;5072346;28;20103;-79
2022/06/05 05:05:24;;;;;;;29.85;23.13;;;;;;;;;;5077125;28;20037;-79
2022/06/05 05:07:51;;;;;;;26.15;21.60;;;;;;;;;;5079085;28;20025;-78
2022/06/05 05:10:17;;;;;;;26.95;22.35;;;;;;;;;;5061867;28;20039;-78
2022/06/05 05:12:43;;;;;;;27.83;22.05;;;;;;;;;;5066358;28;20021;-78
2022/06/05 05:15:10;;;;;;;24.60;20.42;;;;;;;;;;5064866;28;20033;-79
2022/06/05 05:17:36;;;;;;;26.75;22.52;;;;;;;;;;5059489;28;20412;-80
2022/06/05 05:20:02;;;;;;;23.23;20.70;;;;;;;;;;5061283;28;20046;-79
2022/06/05 05:22:28;;;;;;;26.40;22.48;;;;;;;;;;5074485;28;20104;-79
2022/06/05 05:24:54;;;;;;;27.00;21.83;;;;;;;;;;5073539;28;20048;-79
2022/06/05 05:27:20;;;;;;;24.73;20.63;;;;;;;;;;5080722;28;20033;-79
2022/06/05 05:29:47;;;;;;;25.20;22.35;;;;;;;;;;5079890;28;20052;-79
2022/06/05 05:32:13;;;;;;;25.95;22.25;;;;;;;;;;5081157;28;20047;-79
2022/06/05 05:34:39;;;;;;;25.92;22.00;;;;;;;;;;5066608;28;20025;-79
2022/06/05 05:37:05;;;;;;;24.40;21.30;;;;;;;;;;5059194;28;20224;-80
2022/06/05 05:42:16;;;;;;;25.20;21.15;;;;;;;;;;5059550;28;20048;-79
2022/06/05 05:44:44;;;;;;;22.92;20.15;;;;;;;;;;5062891;28;20087;-80
2022/06/05 05:47:11;;;;;;;21.33;19.00;;;;;;;;;;5066327;28;20029;-80
2022/06/05 05:49:37;;;;;;;20.98;18.77;;;;;;;;;;5059341;28;20086;-81
2022/06/05 05:52:04;;;;;;;22.23;18.77;;;;;;;;;;5059366;28;20427;-81
2022/06/05 05:54:30;;;;;;;22.17;19.38;;;;;;;;;;5059138;28;20111;-81
2022/06/05 05:56:56;;;;;;;20.42;18.35;;;;;;;;;;5072522;28;20056;-81
2022/06/05 05:59:22;;;;;;;20.42;18.00;;;;;;;;;;5079233;28;20024;-82
2022/06/05 06:01:48;;;;;;;20.65;18.38;;;;;;;;;;5072607;28;20037;-81
2022/06/05 06:04:14;;;;;;;23.42;19.42;;;;;;;;;;5059805;28;20035;-81
2022/06/05 06:06:42;;;;;;;20.42;17.73;;;;;;;;;;5071258;28;20032;-83
2022/06/05 06:09:08;;;;;;;19.25;17.23;;;;;;;;;;5076238;28;20025;-82
2022/06/05 06:11:34;;;;;;;19.00;16.75;;;;;;;;;;5060348;28;20014;-83
2022/06/05 06:14:00;;;;;;;19.77;17.52;;;;;;;;;;5060208;28;20431;-83
2022/06/05 06:16:26;;;;;;;17.63;15.73;;;;;;;;;;5064063;28;20025;-83
2022/06/05 06:18:53;;;;;;;17.58;15.68;;;;;;;;;;5058193;28;20384;-83
2022/06/05 06:21:19;;;;;;;18.15;16.25;;;;;;;;;;5058902;28;20089;-83
2022/06/05 06:23:45;;;;;;;17.45;15.20;;;;;;;;;;5070460;28;20476;-83
2022/06/05 06:26:12;;;;;;;16.50;14.55;;;;;;;;;;5068471;28;20036;-83
2022/06/05 06:28:38;;;;;;;17.65;14.57;;;;;;;;;;5057312;28;20052;-83
2022/06/05 06:31:05;;;;;;;16.63;14.88;;;;;;;;;;5056603;28;20045;-83
2022/06/05 06:33:31;;;;;;;17.42;15.57;;;;;;;;;;5054881;28;20033;-82
2022/06/05 06:36:00;;;;;;;16.65;14.95;;;;;;;;;;5062574;28;20025;-84
2022/06/05 06:38:26;;;;;;;16.40;14.80;;;;;;;;;;5076833;28;20028;-83
2022/06/05 06:40:57;;;;;;;18.13;14.65;;;;;;;;;;5077143;28;20033;-83
2022/06/05 06:43:23;;;;;;;17.80;15.98;;;;;;;;;;5073695;28;20021;-83
2022/06/05 06:45:49;;;;;;;17.17;14.48;;;;;;;;;;5069827;28;20029;-84
2022/06/05 06:48:16;;;;;;;16.85;15.07;;;;;;;;;;5053662;28;20476;-84
2022/06/05 06:50:42;;;;;;;16.02;13.73;;;;;;;;;;5051336;28;20138;-84
2022/06/05 06:53:09;;;;;;;15.63;13.50;;;;;;;;;;5053086;28;20048;-84
2022/06/05 06:55:36;;;;;;;16.17;13.20;;;;;;;;;;5069442;28;20029;-85
2022/06/05 06:58:02;;;;;;;15.43;13.50;;;;;;;;;;5054137;28;20025;-85
2022/06/05 07:00:28;;;;;;;14.30;12.73;;;;;;;;;;5056808;28;20020;-85
2022/06/05 07:02:54;;;;;;;14.45;12.70;;;;;;;;;;5071206;28;20033;-84
2022/06/05 07:05:21;;;;;;;15.98;13.93;;;;;;;;;;5071346;28;20039;-86
2022/06/05 07:07:47;;;;;;;14.15;12.75;;;;;;;;;;5070295;28;20383;-87
2022/06/05 07:10:13;;;;;;;16.38;14.13;;;;;;;;;;5071819;28;20024;-85
2022/06/05 07:12:39;;;;;;;15.00;13.38;;;;;;;;;;5070257;28;20029;-84
2022/06/05 07:15:07;;;;;;;16.02;14.32;;;;;;;;;;5055435;28;20017;-84
2022/06/05 07:17:33;;;;;;;14.60;13.20;;;;;;;;;;5053760;28;20021;-84
2022/06/05 07:19:59;;;;;;;13.95;12.55;;;;;;;;;;5050520;28;20021;-84
2022/06/05 07:22:25;;;;;;;14.20;12.70;;;;;;;;;;5050647;28;20025;-85
2022/06/05 07:24:52;;;;;;;14.32;12.43;;;;;;;;;;5058957;28;20035;-85
2022/06/05 07:27:18;;;;;;;16.02;13.27;;;;;;;;;;5070520;28;20060;-85
2022/06/05 07:29:44;;;;;;;14.73;12.40;;;;;;;;;;5059759;28;20044;-84
2022/06/05 07:32:11;;;;;;;13.95;12.45;;;;;;;;;;5077937;28;20020;-84
2022/06/05 07:34:37;;;;;;;13.15;11.75;;;;;;;;;;5077873;28;20495;-84
2022/06/05 07:37:04;;;;;;;12.18;10.77;;;;;;;;;;5078806;28;20029;-83
2022/06/05 07:39:30;;;;;;;13.23;11.93;;;;;;;;;;5067550;28;20025;-84
2022/06/05 07:41:59;;;;;;;12.65;11.35;;;;;;;;;;5055367;28;20500;-84
2022/06/05 07:44:26;;;;;;;14.82;13.32;;;;;;;;;;5056336;28;20021;-84
2022/06/05 07:46:52;;;;;;;15.20;12.32;;;;;;;;;;5058026;28;20029;-84
2022/06/05 07:49:18;;;;;;;12.45;11.15;;;;;;;;;;5072553;28;20028;-84
2022/06/05 07:54:31;;;;;;;13.07;11.70;;;;;;;;;;5069088;28;20027;-83
2022/06/05 07:57:01;;;;;;;14.23;11.55;;;;;;;;;;5063748;28;20025;-84
2022/06/05 07:59:28;;;;;;;13.48;11.80;;;;;;;;;;5059695;28;20404;-84
2022/06/05 08:01:54;;;;;;;13.18;11.88;;;;;;;;;;5057131;28;20025;-84
2022/06/05 08:04:20;;;;;;;12.93;11.48;;;;;;;;;;5063042;28;20503;-85
2022/06/05 08:06:47;;;;;;;12.57;11.25;;;;;;;;;;5058457;28;20025;-84
2022/06/05 08:09:13;;;;;;;11.73;10.52;;;;;;;;;;5061961;28;20085;-84
2022/06/05 08:11:42;;;;;;;12.05;10.70;;;;;;;;;;5063554;28;20111;-84
2022/06/05 08:14:09;;;;;;;11.85;10.65;;;;;;;;;;5058028;28;20059;-84
2022/06/05 08:16:36;;;;;;;12.85;11.48;;;;;;;;;;5061861;28;20117;-84
2022/06/05 08:19:02;;;;;;;12.65;11.35;;;;;;;;;;5067844;28;20021;-84
2022/06/05 08:21:28;;;;;;;11.50;10.38;;;;;;;;;;5071651;28;20063;-84
2022/06/05 08:23:54;;;;;;;12.35;11.07;;;;;;;;;;5064382;28;20033;-86
2022/06/05 08:26:20;;;;;;;11.68;10.48;;;;;;;;;;5065774;28;20367;-84
2022/06/05 08:28:46;;;;;;;13.15;11.85;;;;;;;;;;5060687;28;20024;-85
2022/06/05 08:31:12;;;;;;;11.20;10.10;;;;;;;;;;5058406;28;20510;-85
2022/06/05 08:33:38;;;;;;;11.18;10.07;;;;;;;;;;5056239;28;20013;-85
2022/06/05 08:36:04;;;;;;;13.40;10.80;;;;;;;;;;5059576;28;20400;-86
2022/06/05 08:41:27;;;;;;;12.32;10.65;;;;;;;;;;5085311;28;20121;-85
2022/06/05 08:44:02;;;;;;;10.63;9.52;;;;;;;;;;5076245;28;20021;-85
2022/06/05 08:46:32;;;;;;;12.77;9.98;;;;;;;;;;5063864;28;20013;-84
2022/06/05 08:49:03;;;;;;;12.20;10.75;;;;;;;;;;5070909;28;20024;-85
2022/06/05 08:51:41;;;;;;;11.50;10.40;;;;;;;;;;5083632;28;20054;-84
2022/06/05 08:54:16;;;;;;;11.75;10.55;;;;;;;;;;5086700;28;20456;-84
2022/06/05 08:56:48;;;;;;;11.82;10.32;;;;;;;;;;5086647;28;20024;-85
2022/06/05 08:59:14;;;;;;;11.23;10.13;;;;;;;;;;5082537;28;20029;-85
2022/06/05 09:01:59;;;;;;;12.05;10.43;;;;;;;;;;5082763;28;20024;-85
2022/06/05 09:04:40;;;;;;;12.07;10.88;;;;;;;;;;5073118;28;20029;-84
2022/06/05 09:07:11;;;;;;;11.90;10.57;;;;;;;;;;5087864;28;20024;-84
2022/06/05 09:09:46;;;;;;;13.63;10.95;;;;;;;;;;5090869;28;20096;-84
2022/06/05 09:12:17;;;;;;;11.75;10.55;;;;;;;;;;5091711;28;20016;-85
2022/06/05 09:15:07;;;;;;;12.10;10.80;;;;;;;;;;5079066;28;20763;-84
2022/06/05 09:17:33;;;;;;;12.80;11.50;;;;;;;;;;5072807;28;20024;-85
2022/06/05 09:19:59;;;;;;;12.65;11.45;;;;;;;;;;5073551;28;20032;-85
2022/06/05 09:22:44;;;;;;;13.05;11.65;;;;;;;;;;5080833;28;20014;-84
2022/06/05 09:25:22;;;;;;;12.45;10.85;;;;;;;;;;5067610;28;20430;-84
2022/06/05 09:28:07;;;;;;;12.15;10.70;;;;;;;;;;5081101;28;20136;-85
2022/06/05 09:30:37;;;;;;;11.30;10.10;;;;;;;;;;5063177;28;20037;-85
2022/06/05 09:33:14;;;;;;;12.80;11.50;;;;;;;;;;5059893;28;20077;-85
2022/06/05 09:35:52;;;;;;;12.48;10.60;;;;;;;;;;5061946;28;20456;-84
2022/06/05 09:38:23;;;;;;;11.48;10.38;;;;;;;;;;5062737;28;20033;-85
2022/06/05 09:41:09;;;;;;;11.75;10.50;;;;;;;;;;5066359;28;20036;-83
2022/06/05 09:43:58;;;;;;;11.55;10.43;;;;;;;;;;5065391;28;20460;-84
2022/06/05 09:46:29;;;;;;;11.70;10.50;;;;;;;;;;5061277;28;20043;-84
2022/06/05 09:49:09;;;;;;;11.13;10.02;;;;;;;;;;5076789;28;20032;-82
2022/06/05 09:51:40;;;;;;;12.10;10.80;;;;;;;;;;5086100;28;20021;-83
2022/06/05 09:54:20;;;;;;;10.23;9.23;;;;;;;;;;5068707;28;20020;-84
2022/06/05 09:59:35;;;;;;;10.32;9.27;;;;;;;;;;5088051;28;20527;-83
2022/06/05 10:02:02;;;;;;;9.25;8.25;;;;;;;;;;5085239;28;20055;-84
2022/06/05 10:04:29;;;;;;;9.15;8.25;;;;;;;;;;5065960;28;20029;-83
2022/06/05 10:07:06;;;;;;;9.98;8.80;;;;;;;;;;5076571;28;20039;-84
2022/06/05 10:09:34;;;;;;;9.00;8.13;;;;;;;;;;5081873;28;20021;-83
2022/06/05 10:12:03;;;;;;;9.70;8.70;;;;;;;;;;5069044;28;20035;-84
2022/06/05 10:14:50;;;;;;;9.60;8.50;;;;;;;;;;5069364;28;20025;-82
2022/06/05 10:17:25;;;;;;;8.07;7.28;;;;;;;;;;5071531;28;20008;-83
2022/06/05 10:20:10;;;;;;;8.05;7.25;;;;;;;;;;5069142;28;20029;-83
2022/06/05 10:22:45;;;;;;;8.70;7.80;;;;;;;;;;5067434;28;20033;-84
2022/06/05 10:25:33;;;;;;;9.13;7.63;;;;;;;;;;5079399;28;20036;-84
2022/06/05 10:28:02;;;;;;;9.13;8.13;;;;;;;;;;5082824;28;20032;-83
2022/06/05 10:30:33;;;;;;;9.35;8.45;;;;;;;;;;5078836;28;20056;-83
2022/06/05 10:33:13;;;;;;;9.38;8.48;;;;;;;;;;5071316;28;20021;-84
2022/06/05 10:35:54;;;;;;;8.85;7.95;;;;;;;;;;5067704;28;20032;-83
2022/06/05 10:38:31;;;;;;;10.73;8.38;;;;;;;;;;5069939;28;20029;-82
2022/06/05 10:41:05;;;;;;;8.32;7.22;;;;;;;;;;5076004;28;20096;-81
2022/06/05 10:43:32;;;;;;;8.80;7.90;;;;;;;;;;5076314;28;20504;-82
2022/06/05 10:45:59;;;;;;;8.63;7.80;;;;;;;;;;5071741;28;20036;-83
2022/06/05 10:48:30;;;;;;;8.40;7.45;;;;;;;;;;5086767;28;20035;-84
2022/06/05 10:51:13;;;;;;;8.25;7.35;;;;;;;;;;5066917;28;20082;-83
2022/06/05 10:53:42;;;;;;;12.50;11.20;;;;;;;;;;5066125;28;20040;-84
2022/06/05 10:56:11;;;;;;;8.77;7.07;;;;;;;;;;5076685;28;20043;-84
2022/06/05 10:58:51;;;;;;;7.00;6.30;;;;;;;;;;5080193;28;20021;-84
2022/06/05 11:01:41;;;;;;;8.27;7.25;;;;;;;;;;5066245;28;20029;-84
2022/06/05 11:04:10;;;;;;;9.38;6.93;;;;;;;;;;5071990;28;20488;-82
2022/06/05 11:06:43;;;;;;;9.00;7.10;;;;;;;;;;5089025;28;20045;-84
2022/06/05 11:09:16;;;;;;;8.02;7.03;;;;;;;;;;5085238;28;20033;-83
2022/06/05 11:14:48;;;;;;;9.27;7.65;;;;;;;;;;5075860;28;20036;-85
2022/06/05 11:17:14;;;;;;;8.60;7.70;;;;;;;;;;5076439;28;20043;-84
2022/06/05 11:20:08;;;;;;;8.88;7.97;;;;;;;;;;5069714;28;20120;-84
2022/06/05 11:22:37;;;;;;;9.55;8.55;;;;;;;;;;5071038;28;20055;-84
2022/06/05 11:25:18;;;;;;;8.90;8.00;;;;;;;;;;5073451;28;20052;-82
2022/06/05 11:27:51;;;;;;;9.20;8.18;;;;;;;;;;5069853;28;20041;-81
2022/06/05 11:30:29;;;;;;;8.93;8.07;;;;;;;;;;5071334;28;20037;-84
2022/06/05 11:32:58;;;;;;;8.48;7.55;;;;;;;;;;5067283;28;20021;-85
2022/06/05 11:35:38;;;;;;;11.00;8.80;;;;;;;;;;5064805;28;20709;-84
2022/06/05 11:38:23;;;;;;;9.23;8.20;;;;;;;;;;5078528;28;20013;-82
2022/06/05 11:41:03;;;;;;;9.32;8.43;;;;;;;;;;5076517;28;20025;-83
2022/06/05 11:43:29;;;;;;;9.25;8.35;;;;;;;;;;5068338;28;20017;-86
2022/06/05 11:46:03;;;;;;;9.45;8.25;;;;;;;;;;5071594;28;20040;-83
2022/06/05 11:48:37;;;;;;;8.95;8.05;;;;;;;;;;5075470;28;20046;-83
2022/06/05 11:51:06;;;;;;;10.50;9.50;;;;;;;;;;5089336;28;20032;-83
2022/06/05 11:53:44;;;;;;;9.82;8.82;;;;;;;;;;5087020;28;20021;-84
2022/06/05 11:56:32;;;;;;;9.52;8.15;;;;;;;;;;5071612;28;20017;-83
2022/06/05 11:59:10;;;;;;;8.75;7.85;;;;;;;;;;5083497;28;20074;-83
2022/06/05 12:01:44;;;;;;;10.02;8.70;;;;;;;;;;5081627;28;20058;-83
2022/06/05 12:04:34;;;;;;;8.80;7.90;;;;;;;;;;5088256;28;20032;-84
2022/06/05 12:07:03;;;;;;;8.50;7.70;;;;;;;;;;5080595;28;20036;-81
2022/06/05 12:09:30;;;;;;;10.10;9.10;;;;;;;;;;5069674;28;20051;-83
2022/06/05 12:12:04;;;;;;;10.15;9.15;;;;;;;;;;5073469;28;20012;-83
2022/06/05 12:14:30;;;;;;;10.80;9.68;;;;;;;;;;5090823;28;20027;-83
2022/06/05 12:17:05;;;;;;;11.15;10.05;;;;;;;;;;5089320;28;20100;-83
2022/06/05 12:19:45;;;;;;;11.02;9.90;;;;;;;;;;5075645;28;20040;-83
2022/06/05 12:22:18;;;;;;;10.80;8.70;;;;;;;;;;5071958;28;20032;-83
2022/06/05 12:24:57;;;;;;;9.23;8.23;;;;;;;;;;5072695;28;20040;-85
2022/06/05 12:27:24;;;;;;;9.55;8.60;;;;;;;;;;5073872;28;20036;-83
2022/06/05 12:30:06;;;;;;;9.80;8.80;;;;;;;;;;5087556;28;20064;-83
2022/06/05 12:32:38;;;;;;;10.27;9.18;;;;;;;;;;5070683;28;20048;-81
2022/06/05 12:35:04;;;;;;;9.82;8.82;;;;;;;;;;5075221;28;20263;-83
2022/06/05 12:37:39;;;;;;;9.82;8.82;;;;;;;;;;5083137;28;20016;-83
2022/06/05 12:40:15;;;;;;;9.65;8.65;;;;;;;;;;5081250;28;20058;-83
2022/06/05 12:42:45;;;;;;;9.70;8.70;;;;;;;;;;5065287;28;20092;-83
2022/06/05 12:45:17;;;;;;;8.10;7.30;;;;;;;;;;5070162;28;20048;-82
2022/06/05 12:47:52;;;;;;;8.40;7.13;;;;;;;;;;5080977;28;20029;-83
2022/06/05 12:50:21;;;;;;;7.68;6.85;;;;;;;;;;5087185;28;20052;-83
2022/06/05 12:52:53;;;;;;;6.90;6.20;;;;;;;;;;5075896;28;20439;-83
2022/06/05 12:55:25;;;;;;;7.40;5.15;;;;;;;;;;5072376;28;20063;-84
2022/06/05 12:57:51;;;;;;;6.40;5.13;;;;;;;;;;5074149;28;20017;-86
2022/06/05 13:00:20;;;;;;;6.43;5.20;;;;;;;;;;5068809;28;20029;-84
2022/06/05 13:02:59;;;;;;;5.90;5.18;;;;;;;;;;5077980;28;20048;-83
2022/06/05 13:05:30;;;;;;;6.93;5.25;;;;;;;;;;5089019;28;20040;-83
2022/06/05 13:08:05;;;;;;;6.50;5.50;;;;;;;;;;5087666;28;20045;-84
2022/06/05 13:10:40;;;;;;;6.75;5.47;;;;;;;;;;5085605;28;20103;-83
2022/06/05 13:13:15;;;;;;;7.32;5.72;;;;;;;;;;5087090;28;20103;-84
2022/06/05 13:15:45;;;;;;;6.80;5.43;;;;;;;;;;5087923;28;20038;-84
2022/06/05 13:18:14;;;;;;;6.75;5.15;;;;;;;;;;5082912;28;20025;-85
2022/06/05 13:20:42;;;;;;;5.72;4.93;;;;;;;;;;5077430;28;20035;-83
2022/06/05 13:23:08;;;;;;;6.57;5.10;;;;;;;;;;5067157;28;20025;-85
2022/06/05 13:25:52;;;;;;;5.95;5.03;;;;;;;;;;5070166;28;20195;-84
2022/06/05 13:28:41;;;;;;;6.00;5.13;;;;;;;;;;5067005;28;20023;-84
2022/06/05 13:31:27;;;;;;;7.07;4.85;;;;;;;;;;5069461;28;20036;-83
2022/06/05 13:33:56;;;;;;;5.95;5.10;;;;;;;;;;5067632;28;20108;-83
2022/06/05 13:36:29;;;;;;;6.47;4.93;;;;;;;;;;5073465;28;20024;-83
2022/06/05 13:39:14;;;;;;;6.55;4.80;;;;;;;;;;5066472;28;20025;-84
2022/06/05 13:41:49;;;;;;;6.18;4.55;;;;;;;;;;5064883;28;20447;-83
2022/06/05 13:44:19;;;;;;;6.07;4.60;;;;;;;;;;5063677;28;20029;-84
2022/06/05 13:46:56;;;;;;;5.20;4.25;;;;;;;;;;5073076;28;20035;-83
2022/06/05 13:49:33;;;;;;;6.38;4.82;;;;;;;;;;5087774;28;20021;-84
2022/06/05 13:52:26;;;;;;;5.53;4.25;;;;;;;;;;5087081;28;20052;-84
2022/06/05 13:54:59;;;;;;;6.95;4.40;;;;;;;;;;5064406;28;20033;-83
2022/06/05 13:57:28;;;;;;;6.10;4.40;;;;;;;;;;5079619;28;20071;-83
2022/06/05 14:00:00;;;;;;;7.50;4.53;;;;;;;;;;5065941;28;20040;-83
2022/06/05 14:02:25;;;;;;;6.25;5.30;;;;;;;;;;5064665;28;20025;-84
2022/06/05 14:05:01;;;;;;;8.40;6.03;;;;;;;;;;5066986;28;20055;-82
2022/06/05 14:07:34;;;;;;;9.85;6.10;;;;;;;;;;5063062;28;20024;-83
2022/06/05 14:10:09;;;;;;;6.97;6.28;;;;;;;;;;5080356;28;20414;-82
2022/06/05 14:12:42;;;;;;;7.15;6.22;;;;;;;;;;5086002;28;20109;-84
2022/06/05 14:15:13;;;;;;;9.25;6.45;;;;;;;;;;5086482;28;20556;-83
2022/06/05 14:17:44;;;;;;;7.72;6.93;;;;;;;;;;5085940;28;20054;-84
2022/06/05 14:20:19;;;;;;;8.05;7.25;;;;;;;;;;5083671;28;20040;-83
2022/06/05 14:22:57;;;;;;;8.27;7.32;;;;;;;;;;5084795;28;20093;-84
2022/06/05 14:25:28;;;;;;;9.15;7.10;;;;;;;;;;5083644;28;20039;-84
2022/06/05 14:27:58;;;;;;;8.60;7.57;;;;;;;;;;5085299;28;20021;-82
2022/06/05 14:30:34;;;;;;;8.00;6.97;;;;;;;;;;5082448;28;20116;-83
2022/06/05 14:33:01;;;;;;;9.52;7.53;;;;;;;;;;5083677;28;20085;-83
2022/06/05 14:35:38;;;;;;;8.88;7.05;;;;;;;;;;5085578;28;20025;-85
2022/06/05 14:38:13;;;;;;;8.88;7.97;;;;;;;;;;5076549;28;20029;-84
2022/06/05 14:40:48;;;;;;;8.70;7.85;;;;;;;;;;5081916;28;20028;-84
2022/06/05 14:43:14;;;;;;;7.80;7.00;;;;;;;;;;5093937;28;20024;-84
2022/06/05 14:45:43;;;;;;;8.60;7.00;;;;;;;;;;5088161;28;20531;-83
2022/06/05 14:48:19;;;;;;;8.05;7.25;;;;;;;;;;5070125;28;20082;-86
2022/06/05 14:50:48;;;;;;;7.65;6.80;;;;;;;;;;5066705;28;20049;-85
2022/06/05 14:53:14;;;;;;;7.95;6.55;;;;;;;;;;5081763;28;20026;-84
2022/06/05 14:58:35;;;;;;;8.50;6.65;;;;;;;;;;5069559;28;20093;-84
2022/06/05 15:01:08;;;;;;;7.90;6.47;;;;;;;;;;5075089;28;20049;-83
2022/06/05 15:03:56;;;;;;;7.93;5.88;;;;;;;;;;5081651;28;20032;-84
2022/06/05 15:06:27;;;;;;;7.85;6.47;;;;;;;;;;5082603;28;20128;-83